sensor_id;sensor_type;location;lat;lon;timestamp;pressure;altitude;pressure_sealevel;temperature;humidity
71239;BME280;61342;51.442;7.370;2023-05-07T00:00:06;100080.66;;;16.38;99.71
71239;BME280;61342;51.442;7.370;2023-05-07T00:01:09;100084.50;;;16.41;99.72
71239;BME280;61342;51.442;7.370;2023-05-07T00:02:11;100077.13;;;16.32;100.00
71239;BME280;61342;51.442;7.370;2023-05-07T00:03:11;100075.97;;;16.28;100.00
71239;BME280;61342;51.442;7.370;2023-05-07T00:04:13;100088.75;;;16.32;100.00
71239;BME280;61342;51.442;7.370;2023-05-07T00:05:14;100080.63;;;16.31;100.00
71239;BME280;61342;51.442;7.370;2023-05-07T00:06:15;100092.41;;;16.25;100.00
71239;BME280;61342;51.442;7.370;2023-05-07T00:07:15;100091.81;;;16.27;100.00
71239;BME280;61342;51.442;7.370;2023-05-07T00:08:15;100086.34;;;16.23;100.00
71239;BME280;61342;51.442;7.370;2023-05-07T00:09:16;100086.34;;;16.23;100.00
71239;BME280;61342;51.442;7.370;2023-05-07T00:10:16;100088.25;;;16.21;100.00
71239;BME280;61342;51.442;7.370;2023-05-07T00:11:17;100077.06;;;16.17;100.00
71239;BME280;61342;51.442;7.370;2023-05-07T00:12:17;100085.75;;;16.17;100.00
71239;BME280;61342;51.442;7.370;2023-05-07T00:13:17;100092.91;;;16.16;100.00
71239;BME280;61342;51.442;7.370;2023-05-07T00:14:18;100093.88;;;16.19;100.00
71239;BME280;61342;51.442;7.370;2023-05-07T00:15:18;100097.94;;;16.23;100.00
71239;BME280;61342;51.442;7.370;2023-05-07T00:16:19;100098.38;;;16.27;100.00
71239;BME280;61342;51.442;7.370;2023-05-07T00:17:19;100098.06;;;16.38;100.00
71239;BME280;61342;51.442;7.370;2023-05-07T00:18:20;100082.59;;;16.43;100.00
71239;BME280;61342;51.442;7.370;2023-05-07T00:19:22;100091.16;;;16.56;100.00
71239;BME280;61342;51.442;7.370;2023-05-07T00:20:23;100082.63;;;16.51;100.00
71239;BME280;61342;51.442;7.370;2023-05-07T00:21:23;100090.78;;;16.67;100.00
71239;BME280;61342;51.442;7.370;2023-05-07T00:22:26;100091.41;;;16.73;100.00
71239;BME280;61342;51.442;7.370;2023-05-07T00:23:27;100091.41;;;16.73;100.00
71239;BME280;61342;51.442;7.370;2023-05-07T00:24:27;100097.59;;;16.77;100.00
71239;BME280;61342;51.442;7.370;2023-05-07T00:25:27;100091.63;;;16.75;99.87
71239;BME280;61342;51.442;7.370;2023-05-07T00:26:28;100085.19;;;16.69;99.69
71239;BME280;61342;51.442;7.370;2023-05-07T00:27:28;100096.63;;;16.74;100.00
71239;BME280;61342;51.442;7.370;2023-05-07T00:28:29;100083.25;;;16.64;99.73
71239;BME280;61342;51.442;7.370;2023-05-07T00:29:29;100098.16;;;16.68;99.98
71239;BME280;61342;51.442;7.370;2023-05-07T00:30:30;100092.75;;;16.65;99.91
71239;BME280;61342;51.442;7.370;2023-05-07T00:31:30;100091.94;;;16.64;100.00
71239;BME280;61342;51.442;7.370;2023-05-07T00:32:30;100084.78;;;16.58;100.00
71239;BME280;61342;51.442;7.370;2023-05-07T00:33:31;100083.03;;;16.55;100.00
71239;BME280;61342;51.442;7.370;2023-05-07T00:34:31;100091.16;;;16.56;100.00
71239;BME280;61342;51.442;7.370;2023-05-07T00:35:31;100089.41;;;16.53;100.00
71239;BME280;61342;51.442;7.370;2023-05-07T00:36:32;100087.28;;;16.54;100.00
71239;BME280;61342;51.442;7.370;2023-05-07T00:37:32;100075.06;;;16.48;100.00
71239;BME280;61342;51.442;7.370;2023-05-07T00:38:33;100095.00;;;16.51;100.00
71239;BME280;61342;51.442;7.370;2023-05-07T00:39:34;100091.91;;;16.49;100.00
71239;BME280;61342;51.442;7.370;2023-05-07T00:40:35;100085.72;;;16.45;100.00
71239;BME280;61342;51.442;7.370;2023-05-07T00:41:35;100091.69;;;16.47;100.00
71239;BME280;61342;51.442;7.370;2023-05-07T00:42:35;100084.91;;;16.45;100.00
71239;BME280;61342;51.442;7.370;2023-05-07T00:43:36;100093.63;;;16.45;100.00
71239;BME280;61342;51.442;7.370;2023-05-07T00:44:37;100085.50;;;16.43;100.00
71239;BME280;61342;51.442;7.370;2023-05-07T00:45:38;100092.84;;;16.44;100.00
71239;BME280;61342;51.442;7.370;2023-05-07T00:46:39;100086.81;;;16.35;100.00
71239;BME280;61342;51.442;7.370;2023-05-07T00:47:40;100087.03;;;16.44;100.00
71239;BME280;61342;51.442;7.370;2023-05-07T00:48:41;100091.28;;;16.43;100.00
71239;BME280;61342;51.442;7.370;2023-05-07T00:49:42;100082.59;;;16.43;100.00
71239;BME280;61342;51.442;7.370;2023-05-07T00:50:43;100086.88;;;16.42;100.00
71239;BME280;61342;51.442;7.370;2023-05-07T00:51:45;100090.72;;;16.45;100.00
71239;BME280;61342;51.442;7.370;2023-05-07T00:52:45;100090.34;;;16.48;100.00
71239;BME280;61342;51.442;7.370;2023-05-07T00:53:46;100080.69;;;16.53;100.00
71239;BME280;61342;51.442;7.370;2023-05-07T00:54:47;100093.28;;;16.63;100.00
71239;BME280;61342;51.442;7.370;2023-05-07T00:55:48;100082.13;;;16.74;100.00
71239;BME280;61342;51.442;7.370;2023-05-07T00:56:48;100085.22;;;16.84;100.00
71239;BME280;61342;51.442;7.370;2023-05-07T00:57:49;100087.38;;;16.91;100.00
71239;BME280;61342;51.442;7.370;2023-05-07T00:58:50;100083.50;;;16.96;100.00
71239;BME280;61342;51.442;7.370;2023-05-07T00:59:51;100088.94;;;16.99;100.00
71239;BME280;61342;51.442;7.370;2023-05-07T01:00:52;100080.22;;;16.99;100.00
71239;BME280;61342;51.442;7.370;2023-05-07T01:01:52;100087.38;;;16.98;99.90
71239;BME280;61342;51.442;7.370;2023-05-07T01:02:53;100082.94;;;16.97;100.00
71239;BME280;61342;51.442;7.370;2023-05-07T01:03:53;100082.94;;;16.97;100.00
71239;BME280;61342;51.442;7.370;2023-05-07T01:04:55;100072.28;;;16.92;99.63
71239;BME280;61342;51.442;7.370;2023-05-07T01:05:57;100075.78;;;16.91;99.71
71239;BME280;61342;51.442;7.370;2023-05-07T01:07:00;100079.81;;;16.88;99.97
71239;BME280;61342;51.442;7.370;2023-05-07T01:08:02;100073.63;;;16.84;100.00
71239;BME280;61342;51.442;7.370;2023-05-07T01:09:03;100077.69;;;16.81;100.00
71239;BME280;61342;51.442;7.370;2023-05-07T01:10:05;100075.94;;;16.78;100.00
71239;BME280;61342;51.442;7.370;2023-05-07T01:11:07;100063.94;;;16.74;100.00
71239;BME280;61342;51.442;7.370;2023-05-07T01:12:08;100072.25;;;16.70;100.00
71239;BME280;61342;51.442;7.370;2023-05-07T01:13:12;100074.94;;;16.68;100.00
71239;BME280;61342;51.442;7.370;2023-05-07T01:14:14;100071.06;;;16.66;100.00
71239;BME280;61342;51.442;7.370;2023-05-07T01:15:14;100066.22;;;16.61;100.00
71239;BME280;61342;51.442;7.370;2023-05-07T01:16:15;100061.94;;;16.54;100.00
71239;BME280;61342;51.442;7.370;2023-05-07T01:17:16;100062.53;;;16.53;100.00
71239;BME280;61342;51.442;7.370;2023-05-07T01:18:16;100069.84;;;16.54;100.00
71239;BME280;61342;51.442;7.370;2023-05-07T01:19:18;100062.88;;;16.49;100.00
71239;BME280;61342;51.442;7.370;2023-05-07T01:20:19;100071.38;;;16.47;100.00
71239;BME280;61342;51.442;7.370;2023-05-07T01:21:25;100062.84;;;16.42;100.00
71239;BME280;61342;51.442;7.370;2023-05-07T01:22:30;100072.13;;;16.40;100.00
71239;BME280;61342;51.442;7.370;2023-05-07T01:23:33;100060.91;;;16.37;100.00
71239;BME280;61342;51.442;7.370;2023-05-07T01:24:35;100065.16;;;16.36;100.00
71239;BME280;61342;51.442;7.370;2023-05-07T01:25:36;100066.88;;;16.31;100.00
71239;BME280;61342;51.442;7.370;2023-05-07T01:26:37;100066.88;;;16.31;100.00
71239;BME280;61342;51.442;7.370;2023-05-07T01:27:38;100060.66;;;16.27;100.00
71239;BME280;61342;51.442;7.370;2023-05-07T01:28:38;100059.91;;;16.27;100.00
71239;BME280;61342;51.442;7.370;2023-05-07T01:29:38;100066.28;;;16.25;100.00
71239;BME280;61342;51.442;7.370;2023-05-07T01:30:40;100072.84;;;16.26;100.00
71239;BME280;61342;51.442;7.370;2023-05-07T01:31:42;100076.31;;;16.24;100.00
71239;BME280;61342;51.442;7.370;2023-05-07T01:32:48;100070.16;;;16.28;100.00
71239;BME280;61342;51.442;7.370;2023-05-07T01:33:50;100069.78;;;16.31;100.00
71239;BME280;61342;51.442;7.370;2023-05-07T01:34:52;100067.91;;;16.41;100.00
71239;BME280;61342;51.442;7.370;2023-05-07T01:35:54;100073.91;;;16.51;100.00
71239;BME280;61342;51.442;7.370;2023-05-07T01:36:55;100071.25;;;16.60;100.00
71239;BME280;61342;51.442;7.370;2023-05-07T01:37:58;100068.38;;;16.68;100.00
71239;BME280;61342;51.442;7.370;2023-05-07T01:38:58;100060.06;;;16.72;100.00
71239;BME280;61342;51.442;7.370;2023-05-07T01:40:01;100067.59;;;16.74;100.00
71239;BME280;61342;51.442;7.370;2023-05-07T01:41:02;100065.66;;;16.77;100.00
71239;BME280;61342;51.442;7.370;2023-05-07T01:42:03;100064.13;;;16.76;100.00
71239;BME280;61342;51.442;7.370;2023-05-07T01:43:03;100066.44;;;16.77;100.00
71239;BME280;61342;51.442;7.370;2023-05-07T01:44:05;100074.19;;;16.75;100.00
71239;BME280;61342;51.442;7.370;2023-05-07T01:45:06;100070.31;;;16.73;100.00
71239;BME280;61342;51.442;7.370;2023-05-07T01:46:08;100073.81;;;16.71;100.00
71239;BME280;61342;51.442;7.370;2023-05-07T01:47:10;100071.06;;;16.66;100.00
71239;BME280;61342;51.442;7.370;2023-05-07T01:48:11;100074.53;;;16.64;100.00
71239;BME280;61342;51.442;7.370;2023-05-07T01:49:12;100063.69;;;16.57;100.00
71239;BME280;61342;51.442;7.370;2023-05-07T01:50:15;100075.28;;;16.57;100.00
71239;BME280;61342;51.442;7.370;2023-05-07T01:51:17;100071.03;;;16.51;100.00
71239;BME280;61342;51.442;7.370;2023-05-07T01:52:17;100075.25;;;16.50;100.00
71239;BME280;61342;51.442;7.370;2023-05-07T01:53:18;100068.09;;;16.43;100.00
71239;BME280;61342;51.442;7.370;2023-05-07T01:54:18;100072.53;;;16.44;100.00
71239;BME280;61342;51.442;7.370;2023-05-07T01:55:18;100071.38;;;16.40;100.00
71239;BME280;61342;51.442;7.370;2023-05-07T01:56:19;100071.16;;;16.38;100.00
71239;BME280;61342;51.442;7.370;2023-05-07T01:57:20;100072.09;;;16.33;100.00
71239;BME280;61342;51.442;7.370;2023-05-07T01:58:20;100069.38;;;16.27;100.00
71239;BME280;61342;51.442;7.370;2023-05-07T01:59:21;100070.16;;;16.28;100.00
71239;BME280;61342;51.442;7.370;2023-05-07T02:00:22;100080.00;;;16.25;100.00
71239;BME280;61342;51.442;7.370;2023-05-07T02:01:22;100075.53;;;16.24;100.00
71239;BME280;61342;51.442;7.370;2023-05-07T02:02:22;100073.56;;;16.19;100.00
71239;BME280;61342;51.442;7.370;2023-05-07T02:03:23;100077.06;;;16.17;100.00
71239;BME280;61342;51.442;7.370;2023-05-07T02:04:23;100070.84;;;16.14;100.00
71239;BME280;61342;51.442;7.370;2023-05-07T02:05:24;100079.31;;;16.12;100.00
71239;BME280;61342;51.442;7.370;2023-05-07T02:06:25;100074.69;;;16.09;100.00
71239;BME280;61342;51.442;7.370;2023-05-07T02:07:25;100060.34;;;16.03;100.00
71239;BME280;61342;51.442;7.370;2023-05-07T02:08:25;100075.84;;;16.06;100.00
71239;BME280;61342;51.442;7.370;2023-05-07T02:09:26;100072.53;;;16.02;100.00
71239;BME280;61342;51.442;7.370;2023-05-07T02:10:26;100068.06;;;16.01;100.00
71239;BME280;61342;51.442;7.370;2023-05-07T02:11:26;100076.56;;;15.99;100.00
71239;BME280;61342;51.442;7.370;2023-05-07T02:12:27;100067.66;;;15.97;100.00
71239;BME280;61342;51.442;7.370;2023-05-07T02:13:32;100070.34;;;15.95;100.00
71239;BME280;61342;51.442;7.370;2023-05-07T02:14:33;100073.06;;;15.93;100.00
71239;BME280;61342;51.442;7.370;2023-05-07T02:15:33;100068.19;;;15.88;100.00
71239;BME280;61342;51.442;7.370;2023-05-07T02:16:33;100071.84;;;15.88;100.00
71239;BME280;61342;51.442;7.370;2023-05-07T02:17:34;100067.19;;;15.85;100.00
71239;BME280;61342;51.442;7.370;2023-05-07T02:18:35;100064.66;;;15.82;100.00
71239;BME280;61342;51.442;7.370;2023-05-07T02:19:36;100071.59;;;15.79;100.00
71239;BME280;61342;51.442;7.370;2023-05-07T02:20:36;100069.84;;;15.76;100.00
71239;BME280;61342;51.442;7.370;2023-05-07T02:21:36;100077.22;;;15.77;100.00
71239;BME280;61342;51.442;7.370;2023-05-07T02:22:37;100078.31;;;15.74;100.00
71239;BME280;61342;51.442;7.370;2023-05-07T02:23:37;100071.19;;;15.75;100.00
71239;BME280;61342;51.442;7.370;2023-05-07T02:24:37;100066.75;;;15.74;100.00
71239;BME280;61342;51.442;7.370;2023-05-07T02:25:38;100063.28;;;15.75;100.00
71239;BME280;61342;51.442;7.370;2023-05-07T02:26:40;100065.63;;;15.84;100.00
71239;BME280;61342;51.442;7.370;2023-05-07T02:27:40;100063.56;;;15.92;100.00
71239;BME280;61342;51.442;7.370;2023-05-07T02:28:41;100063.84;;;16.02;100.00
71239;BME280;61342;51.442;7.370;2023-05-07T02:29:41;100076.25;;;16.10;100.00
71239;BME280;61342;51.442;7.370;2023-05-07T02:30:41;100061.34;;;16.13;100.00
71239;BME280;61342;51.442;7.370;2023-05-07T02:31:42;100060.06;;;16.21;100.00
71239;BME280;61342;51.442;7.370;2023-05-07T02:32:42;100061.81;;;16.24;100.00
71239;BME280;61342;51.442;7.370;2023-05-07T02:33:43;100061.47;;;16.28;100.00
71239;BME280;61342;51.442;7.370;2023-05-07T02:34:43;100064.38;;;16.28;100.00
71239;BME280;61342;51.442;7.370;2023-05-07T02:35:44;100063.38;;;16.25;100.00
71239;BME280;61342;51.442;7.370;2023-05-07T02:36:44;100069.19;;;16.25;100.00
71239;BME280;61342;51.442;7.370;2023-05-07T02:37:45;100060.06;;;16.21;100.00
71239;BME280;61342;51.442;7.370;2023-05-07T02:38:46;100056.34;;;16.21;100.00
71239;BME280;61342;51.442;7.370;2023-05-07T02:39:46;100063.31;;;16.18;100.00
71239;BME280;61342;51.442;7.370;2023-05-07T02:40:46;100063.13;;;16.16;100.00
71239;BME280;61342;51.442;7.370;2023-05-07T02:41:47;100068.13;;;16.15;100.00
71239;BME280;61342;51.442;7.370;2023-05-07T02:42:47;100061.94;;;16.12;100.00
71239;BME280;61342;51.442;7.370;2023-05-07T02:43:48;100054.38;;;16.09;100.00
71239;BME280;61342;51.442;7.370;2023-05-07T02:44:48;100063.09;;;16.09;100.00
71239;BME280;61342;51.442;7.370;2023-05-07T02:45:48;100053.97;;;16.05;100.00
71239;BME280;61342;51.442;7.370;2023-05-07T02:46:49;100053.19;;;16.04;100.00
71239;BME280;61342;51.442;7.370;2023-05-07T02:47:49;100055.13;;;16.02;100.00
71239;BME280;61342;51.442;7.370;2023-05-07T02:48:49;100056.47;;;16.01;100.00
71239;BME280;61342;51.442;7.370;2023-05-07T02:49:50;100059.16;;;15.99;100.00
71239;BME280;61342;51.442;7.370;2023-05-07T02:50:50;100060.53;;;15.98;100.00
71239;BME280;61342;51.442;7.370;2023-05-07T02:51:51;100058.97;;;15.97;100.00
71239;BME280;61342;51.442;7.370;2023-05-07T02:52:51;100062.44;;;15.95;100.00
71239;BME280;61342;51.442;7.370;2023-05-07T02:53:51;100057.41;;;15.96;100.00
71239;BME280;61342;51.442;7.370;2023-05-07T02:54:52;100057.97;;;15.94;100.00
71239;BME280;61342;51.442;7.370;2023-05-07T02:55:53;100055.66;;;15.93;100.00
71239;BME280;61342;51.442;7.370;2023-05-07T02:56:53;100058.75;;;15.95;100.00
71239;BME280;61342;51.442;7.370;2023-05-07T02:57:54;100063.00;;;15.94;100.00
71239;BME280;61342;51.442;7.370;2023-05-07T02:58:54;100054.09;;;15.92;100.00
71239;BME280;61342;51.442;7.370;2023-05-07T02:59:55;100057.56;;;15.90;100.00
71239;BME280;61342;51.442;7.370;2023-05-07T03:00:55;100051.38;;;15.86;100.00
71239;BME280;61342;51.442;7.370;2023-05-07T03:01:55;100051.94;;;15.85;100.00
71239;BME280;61342;51.442;7.370;2023-05-07T03:02:56;100054.84;;;15.85;100.00
71239;BME280;61342;51.442;7.370;2023-05-07T03:03:56;100062.75;;;15.84;100.00
71239;BME280;61342;51.442;7.370;2023-05-07T03:04:56;100052.72;;;15.85;100.00
71239;BME280;61342;51.442;7.370;2023-05-07T03:05:57;100060.66;;;15.92;100.00
71239;BME280;61342;51.442;7.370;2023-05-07T03:06:57;100053.34;;;15.99;100.00
71239;BME280;61342;51.442;7.370;2023-05-07T03:07:57;100061.53;;;16.08;100.00
71239;BME280;61342;51.442;7.370;2023-05-07T03:08:58;100049.56;;;16.18;100.00
71239;BME280;61342;51.442;7.370;2023-05-07T03:09:58;100046.88;;;16.20;100.00
71239;BME280;61342;51.442;7.370;2023-05-07T03:10:59;100058.56;;;16.28;100.00
71239;BME280;61342;51.442;7.370;2023-05-07T03:11:59;100052.38;;;16.31;100.00
71239;BME280;61342;51.442;7.370;2023-05-07T03:13:01;100059.94;;;16.34;100.00
71239;BME280;61342;51.442;7.370;2023-05-07T03:14:01;100052.59;;;16.33;100.00
71239;BME280;61342;51.442;7.370;2023-05-07T03:15:02;100041.28;;;16.22;100.00
71239;BME280;61342;51.442;7.370;2023-05-07T03:16:02;100053.53;;;16.28;100.00
71239;BME280;61342;51.442;7.370;2023-05-07T03:17:03;100064.38;;;16.28;100.00
71239;BME280;61342;51.442;7.370;2023-05-07T03:18:03;100053.47;;;16.21;100.00
71239;BME280;61342;51.442;7.370;2023-05-07T03:19:04;100060.06;;;16.21;100.00
71239;BME280;61342;51.442;7.370;2023-05-07T03:20:05;100068.34;;;16.17;100.00
71239;BME280;61342;51.442;7.370;2023-05-07T03:21:05;100053.44;;;16.14;100.00
71239;BME280;61342;51.442;7.370;2023-05-07T03:22:06;100062.50;;;16.10;100.00
71239;BME280;61342;51.442;7.370;2023-05-07T03:23:06;100070.22;;;16.08;100.00
71239;BME280;61342;51.442;7.370;2023-05-07T03:24:06;100065.34;;;16.03;100.00
71239;BME280;61342;51.442;7.370;2023-05-07T03:25:07;100064.94;;;15.99;100.00
71239;BME280;61342;51.442;7.370;2023-05-07T03:26:08;100063.00;;;15.94;100.00
71239;BME280;61342;51.442;7.370;2023-05-07T03:27:09;100067.03;;;15.91;100.00
71239;BME280;61342;51.442;7.370;2023-05-07T03:28:09;100061.81;;;15.89;100.00
71239;BME280;61342;51.442;7.370;2023-05-07T03:29:10;100067.78;;;15.84;100.00
71239;BME280;61342;51.442;7.370;2023-05-07T03:30:11;100061.75;;;15.82;100.00
71239;BME280;61342;51.442;7.370;2023-05-07T03:31:11;100071.81;;;15.81;100.00
71239;BME280;61342;51.442;7.370;2023-05-07T03:32:12;100054.03;;;15.77;100.00
71239;BME280;61342;51.442;7.370;2023-05-07T03:33:12;100068.28;;;15.75;100.00
71239;BME280;61342;51.442;7.370;2023-05-07T03:34:12;100065.97;;;15.73;100.00
71239;BME280;61342;51.442;7.370;2023-05-07T03:35:13;100061.31;;;15.70;100.00
71239;BME280;61342;51.442;7.370;2023-05-07T03:36:14;100062.81;;;15.64;100.00
71239;BME280;61342;51.442;7.370;2023-05-07T03:37:14;100062.81;;;15.64;100.00
71239;BME280;61342;51.442;7.370;2023-05-07T03:38:14;100062.59;;;15.62;100.00
71239;BME280;61342;51.442;7.370;2023-05-07T03:39:15;100064.75;;;15.61;100.00
71239;BME280;61342;51.442;7.370;2023-05-07T03:40:15;100071.69;;;15.58;100.00
71239;BME280;61342;51.442;7.370;2023-05-07T03:41:16;100070.88;;;15.58;100.00
71239;BME280;61342;51.442;7.370;2023-05-07T03:42:16;100060.25;;;15.53;100.00
71239;BME280;61342;51.442;7.370;2023-05-07T03:43:16;100071.03;;;15.53;100.00
71239;BME280;61342;51.442;7.370;2023-05-07T03:44:17;100070.28;;;15.52;100.00
71239;BME280;61342;51.442;7.370;2023-05-07T03:45:17;100071.41;;;15.49;100.00
71239;BME280;61342;51.442;7.370;2023-05-07T03:46:18;100072.19;;;15.50;100.00
71239;BME280;61342;51.442;7.370;2023-05-07T03:47:18;100071.00;;;15.45;100.00
71239;BME280;61342;51.442;7.370;2023-05-07T03:48:19;100066.56;;;15.44;100.00
71239;BME280;61342;51.442;7.370;2023-05-07T03:49:19;100063.25;;;15.40;100.00
71239;BME280;61342;51.442;7.370;2023-05-07T03:50:19;100060.34;;;15.40;100.00
71239;BME280;61342;51.442;7.370;2023-05-07T03:51:20;100068.25;;;15.40;100.00
71239;BME280;61342;51.442;7.370;2023-05-07T03:52:20;100073.47;;;15.41;100.00
71239;BME280;61342;51.442;7.370;2023-05-07T03:53:24;100070.38;;;15.39;100.00
71239;BME280;61342;51.442;7.370;2023-05-07T03:54:25;100056.38;;;15.30;100.00
71239;BME280;61342;51.442;7.370;2023-05-07T03:55:25;100085.44;;;15.38;100.00
71239;BME280;61342;51.442;7.370;2023-05-07T03:56:26;100075.75;;;15.35;100.00
71239;BME280;61342;51.442;7.370;2023-05-07T03:57:27;100073.63;;;15.36;100.00
71239;BME280;61342;51.442;7.370;2023-05-07T03:58:28;100068.38;;;15.34;100.00
71239;BME280;61342;51.442;7.370;2023-05-07T03:59:28;100076.34;;;15.41;100.00
71239;BME280;61342;51.442;7.370;2023-05-07T04:00:29;100068.88;;;15.46;100.00
71239;BME280;61342;51.442;7.370;2023-05-07T04:01:33;100074.94;;;15.55;100.00
71239;BME280;61342;51.442;7.370;2023-05-07T04:02:33;100072.44;;;15.59;100.00
71239;BME280;61342;51.442;7.370;2023-05-07T04:03:34;100084.53;;;15.78;100.00
71239;BME280;61342;51.442;7.370;2023-05-07T04:04:35;100078.03;;;15.85;100.00
71239;BME280;61342;51.442;7.370;2023-05-07T04:05:35;100079.22;;;15.89;100.00
71239;BME280;61342;51.442;7.370;2023-05-07T04:06:35;100074.41;;;15.92;100.00
71239;BME280;61342;51.442;7.370;2023-05-07T04:07:36;100074.03;;;15.95;100.00
71239;BME280;61342;51.442;7.370;2023-05-07T04:08:36;100072.47;;;15.94;100.00
71239;BME280;61342;51.442;7.370;2023-05-07T04:09:36;100082.34;;;15.99;100.00
71239;BME280;61342;51.442;7.370;2023-05-07T04:10:37;100085.25;;;15.99;100.00
71239;BME280;61342;51.442;7.370;2023-05-07T04:11:37;100081.94;;;15.95;100.00
71239;BME280;61342;51.442;7.370;2023-05-07T04:12:40;100081.19;;;15.94;100.00
71239;BME280;61342;51.442;7.370;2023-05-07T04:13:40;100081.94;;;15.95;100.00
71239;BME280;61342;51.442;7.370;2023-05-07T04:14:40;100080.97;;;15.92;100.00
71239;BME280;61342;51.442;7.370;2023-05-07T04:15:41;100079.78;;;15.88;100.00
71239;BME280;61342;51.442;7.370;2023-05-07T04:16:41;100079.03;;;15.87;100.00
71239;BME280;61342;51.442;7.370;2023-05-07T04:17:42;100084.59;;;15.85;100.00
71239;BME280;61342;51.442;7.370;2023-05-07T04:18:42;100082.84;;;15.82;100.00
71239;BME280;61342;51.442;7.370;2023-05-07T04:19:42;100081.28;;;15.81;100.00
71239;BME280;61342;51.442;7.370;2023-05-07T04:20:45;100089.00;;;15.79;100.00
71239;BME280;61342;51.442;7.370;2023-05-07T04:21:45;100090.91;;;15.76;100.00
71239;BME280;61342;51.442;7.370;2023-05-07T04:22:46;100079.47;;;15.71;100.00
71239;BME280;61342;51.442;7.370;2023-05-07T04:23:47;100077.16;;;15.69;100.00
71239;BME280;61342;51.442;7.370;2023-05-07T04:24:47;100079.06;;;15.67;100.00
71239;BME280;61342;51.442;7.370;2023-05-07T04:25:48;100080.63;;;15.68;100.00
71239;BME280;61342;51.442;7.370;2023-05-07T04:26:48;100081.19;;;15.66;100.00
71239;BME280;61342;51.442;7.370;2023-05-07T04:27:49;100074.41;;;15.64;100.00
71239;BME280;61342;51.442;7.370;2023-05-07T04:28:50;100077.09;;;15.62;100.00
71239;BME280;61342;51.442;7.370;2023-05-07T04:29:51;100076.69;;;15.58;100.00
71239;BME280;61342;51.442;7.370;2023-05-07T04:30:51;100082.28;;;15.56;100.00
71239;BME280;61342;51.442;7.370;2023-05-07T04:31:52;100083.28;;;15.58;100.00
71239;BME280;61342;51.442;7.370;2023-05-07T04:32:52;100084.38;;;15.56;100.00
71239;BME280;61342;51.442;7.370;2023-05-07T04:33:53;100083.19;;;15.51;100.00
71239;BME280;61342;51.442;7.370;2023-05-07T04:34:53;100087.84;;;15.54;100.00
71239;BME280;61342;51.442;7.370;2023-05-07T04:35:53;100086.31;;;15.53;100.00
71239;BME280;61342;51.442;7.370;2023-05-07T04:36:58;100088.22;;;15.51;100.00
71239;BME280;61342;51.442;7.370;2023-05-07T04:37:58;100089.00;;;15.51;100.00
71239;BME280;61342;51.442;7.370;2023-05-07T04:38:59;100079.91;;;15.47;100.00
71239;BME280;61342;51.442;7.370;2023-05-07T04:39:59;100085.91;;;15.49;100.00
71239;BME280;61342;51.442;7.370;2023-05-07T04:41:03;100090.34;;;15.50;100.00
71239;BME280;61342;51.442;7.370;2023-05-07T04:42:05;100093.47;;;15.52;100.00
71239;BME280;61342;51.442;7.370;2023-05-07T04:43:09;100097.19;;;15.60;100.00
71239;BME280;61342;51.442;7.370;2023-05-07T04:44:10;100083.09;;;15.64;100.00
71239;BME280;61342;51.442;7.370;2023-05-07T04:45:11;100086.84;;;15.72;100.00
71239;BME280;61342;51.442;7.370;2023-05-07T04:46:12;100093.28;;;15.85;100.00
71239;BME280;61342;51.442;7.370;2023-05-07T04:47:12;100097.22;;;15.95;100.00
71239;BME280;61342;51.442;7.370;2023-05-07T04:48:13;100094.94;;;16.01;100.00
71239;BME280;61342;51.442;7.370;2023-05-07T04:49:15;100099.03;;;16.06;100.00
71239;BME280;61342;51.442;7.370;2023-05-07T04:50:15;100095.75;;;16.09;100.00
71239;BME280;61342;51.442;7.370;2023-05-07T04:51:16;100095.56;;;16.14;100.00
71239;BME280;61342;51.442;7.370;2023-05-07T04:52:16;100100.84;;;16.16;100.00
71239;BME280;61342;51.442;7.370;2023-05-07T04:53:17;100103.16;;;16.17;100.00
71239;BME280;61342;51.442;7.370;2023-05-07T04:54:17;100097.34;;;16.17;100.00
71239;BME280;61342;51.442;7.370;2023-05-07T04:55:18;100099.69;;;16.19;100.00
71239;BME280;61342;51.442;7.370;2023-05-07T04:56:18;100090.56;;;16.15;100.00
71239;BME280;61342;51.442;7.370;2023-05-07T04:57:19;100098.13;;;16.18;100.00
71239;BME280;61342;51.442;7.370;2023-05-07T04:58:19;100097.75;;;16.21;100.00
71239;BME280;61342;51.442;7.370;2023-05-07T04:59:19;100103.75;;;16.23;100.00
71239;BME280;61342;51.442;7.370;2023-05-07T05:00:20;100102.97;;;16.23;100.00
71239;BME280;61342;51.442;7.370;2023-05-07T05:01:20;100093.50;;;16.22;100.00
71239;BME280;61342;51.442;7.370;2023-05-07T05:02:21;100102.97;;;16.23;100.00
71239;BME280;61342;51.442;7.370;2023-05-07T05:03:21;100099.28;;;16.22;100.00
71239;BME280;61342;51.442;7.370;2023-05-07T05:04:21;100089.63;;;16.20;100.00
71239;BME280;61342;51.442;7.370;2023-05-07T05:05:22;100092.94;;;16.24;100.00
71239;BME280;61342;51.442;7.370;2023-05-07T05:06:22;100099.28;;;16.22;100.00
71239;BME280;61342;51.442;7.370;2023-05-07T05:07:23;100089.06;;;16.21;100.00
71239;BME280;61342;51.442;7.370;2023-05-07T05:08:23;100087.50;;;16.20;100.00
71239;BME280;61342;51.442;7.370;2023-05-07T05:09:23;100093.31;;;16.20;100.00
71239;BME280;61342;51.442;7.370;2023-05-07T05:10:24;100098.19;;;16.25;100.00
71239;BME280;61342;51.442;7.370;2023-05-07T05:11:25;100097.41;;;16.25;100.00
71239;BME280;61342;51.442;7.370;2023-05-07T05:12:25;100095.63;;;16.22;100.00
71239;BME280;61342;51.442;7.370;2023-05-07T05:13:26;100091.16;;;16.21;100.00